Flight Track Log - Related Links

Times and Time Zones

All times are in EDT time to prevent confusion due to time zone crossing. See the UAL255 flight status page for this flight to view local times or setup timezone preferences in your user account.

Time Position Orientation Groundspeed Altitude Reporting Facility
EDT Latitude Longitude Course Direction KTS MPH feet Rate Location/Type
Thu 08:54:39 AM 41.2906 -95.8894 181° South 157 181 1,600  Level Minneapolis Center
Thu 08:55:22 AM 41.2572 -95.8906 181° South 172 198 2,600 1,856 Climbing Minneapolis Center
Thu 08:56:16 AM 41.2033 -95.8969 185° South 224 258 4,600 2,557 Climbing Minneapolis Center
Thu 08:57:17 AM 41.1431 -95.9228 198° South 239 275 7,500 2,683 Climbing Minneapolis Center
Thu 08:58:19 AM 41.0772 -95.9644 206° Southwest 254 292 10,100 2,177 Climbing Minneapolis Center
Thu 08:59:21 AM 40.9986 -96.0011 199° South 284 327 12,000 2,244 Climbing Minneapolis Center
Thu 09:00:22 AM 40.9167 -96.0506 205° Southwest 313 360 14,700 2,585 Climbing Minneapolis Center
Thu 09:01:24 AM 40.8428 -96.1119 212° Southwest 315 362 17,300 2,710 Climbing Minneapolis Center
Thu 09:02:26 AM 40.7586 -96.1811 212° Southwest 303 349 20,300 1,756 Climbing Minneapolis Center
Thu 09:03:27 AM 40.6867 -96.2447 214° Southwest 305 351 20,900 439 Climbing Minneapolis Center
Thu 09:04:29 AM 40.6783 -96.3792 265° West 361 415 21,200 1,548 Climbing Minneapolis Center
Thu 09:05:31 AM 40.6861 -96.5206 274° West 382 440 24,100 2,195 Climbing Minneapolis Center
Thu 09:06:32 AM 40.7367 -96.6500 297° West 389 448 25,700 1,220 Climbing Minneapolis Center
Thu 09:07:34 AM 40.7950 -96.7822 300° West 408 470 26,600 976 Climbing Minneapolis Center
Thu 09:08:35 AM 40.8250 -96.9278 285° West 420 483 27,700 878 Climbing Minneapolis Center
Thu 09:09:37 AM 40.8253 -97.0794 270° West 413 475 28,400 871 Climbing Minneapolis Center
Thu 09:10:39 AM 40.8258 -97.2336 270° West 417 480 29,500 1,171 Climbing Minneapolis Center
Thu 09:11:40 AM 40.8261 -97.4006 270° West 424 488 30,800 1,220 Climbing Minneapolis Center
Thu 09:12:42 AM 40.8267 -97.5550 270° West 424 488 32,000 1,171 Climbing Minneapolis Center
Thu 09:13:43 AM 40.8269 -97.7089 270° West 423 487 33,200 1,220 Climbing Minneapolis Center
Thu 09:14:45 AM 40.8264 -97.8925 270° West 419 482 34,500 1,220 Climbing Minneapolis Center
Thu 09:15:46 AM 40.8256 -98.0433 270° West 415 478 35,700 732 Climbing Minneapolis Center
Thu 09:16:48 AM 40.8244 -98.1939 269° West 414 476 36,000 146 Climbing Minneapolis Center
Thu 09:17:49 AM 40.8236 -98.3514 270° West 421 484 36,000  Level Minneapolis Center
Thu 09:18:51 AM 40.8225 -98.5000 269° West 432 497 36,000  Level Minneapolis Center
Thu 09:19:52 AM 40.8203 -98.6581 269° West 432 497 36,000  Level Minneapolis Center
Thu 09:20:54 AM 40.8189 -98.8506 270° West 433 498 36,000  Level Minneapolis Center
Thu 09:21:55 AM 40.8175 -99.0122 269° West 436 502 36,000  Level Minneapolis Center
Thu 09:22:57 AM 40.8150 -99.1619 269° West 437 503 36,000  Level Minneapolis Center
Thu 09:23:58 AM 40.8133 -99.3247 269° West 437 503 36,000  Level Minneapolis Center
Thu 09:25:00 AM 40.8114 -99.4861 269° West 438 504 36,000  Level Minneapolis Center
Thu 09:26:01 AM 40.8083 -99.6483 269° West 438 504 36,000  Level Minneapolis Center
Thu 09:27:03 AM 40.8058 -99.8433 269° West 439 505 36,000  Level Minneapolis Center
Thu 09:28:04 AM 40.8017 -100.0064 268° West 440 506 36,000  Level Minneapolis Center
Thu 09:29:06 AM 40.7981 -100.1700 268° West 442 509 36,000  Level Minneapolis Center
Thu 09:30:07 AM 40.7917 -100.3336 267° West 442 509 36,000  Level Minneapolis Center
Thu 09:31:09 AM 40.7686 -100.4914 259° West 442 509 36,000  Level Minneapolis Center
Thu 09:32:11 AM 40.7411 -100.6456 257° West 440 506 36,000  Level Minneapolis Center
Thu 09:33:34 AM 40.7042 -100.8744 258° West 437 503 36,000  Level Denver Center
Thu 09:34:35 AM 40.6822 -101.0233 259° West 433 498 36,000  Level Denver Center
Thu 09:35:36 AM 40.6592 -101.1714 258° West 430 495 36,000  Level Denver Center
Thu 09:36:38 AM 40.6317 -101.3444 258° West 431 496 36,000 49 Level Denver Center
Thu 09:37:39 AM 40.6081 -101.4931 258° West 431 496 36,100  Climbing Denver Center
Thu 09:38:40 AM 40.5806 -101.6647 258° West 430 495 36,000 -49 Descending Denver Center
Thu 09:39:42 AM 40.5569 -101.8119 258° West 430 495 36,000  Level Denver Center
Thu 09:40:43 AM 40.5328 -101.9578 258° West 429 494 36,000  Level Denver Center
Thu 09:41:44 AM 40.5039 -102.1264 257° West 428 493 36,000  Level Denver Center
Thu 09:42:45 AM 40.4797 -102.2744 258° West 430 495 36,000  Level Denver Center
Thu 09:43:47 AM 40.4503 -102.4464 257° West 431 496 36,000 -390 Level Denver Center
Thu 09:44:48 AM 40.4253 -102.5939 257° West 432 497 35,200 -1,672 Descending Denver Center
Thu 09:45:49 AM 40.4000 -102.7383 257° West 431 496 32,600 -2,341 Descending Denver Center
Thu 09:46:51 AM 40.3736 -102.8947 258° West 438 504 30,400 -2,146 Descending Denver Center
Thu 09:47:52 AM 40.3472 -103.0475 257° West 436 502 28,200 -2,361 Descending Denver Center
Thu 09:48:53 AM 40.3164 -103.2256 257° West 422 486 25,600 -2,341 Descending Denver Center
Thu 09:49:55 AM 40.2906 -103.3706 257° West 414 476 23,400 -2,049 Descending Denver Center
Thu 09:50:56 AM 40.2647 -103.5111 257° West 404 465 21,400 -1,820 Descending Denver Center
Thu 09:51:57 AM 40.2397 -103.6497 257° West 397 457 19,700 -1,672 Descending Denver Center
Thu 09:52:58 AM 40.2114 -103.7908 255° West 377 434 18,000 -1,268 Descending Denver Center
Thu 09:54:00 AM 40.2064 -103.9094 267° West 334 384 17,100 -1,268 Descending Denver Center
Thu 09:55:01 AM 40.2161 -104.0250 276° West 323 372 15,400 -1,561 Descending Denver Center
Thu 09:56:03 AM 40.2269 -104.1389 277° West 320 368 13,900 -1,220 Descending Denver Center
Thu 09:57:04 AM 40.2375 -104.2539 277° West 299 344 12,900 -787 Descending Denver Center
Thu 09:58:05 AM 40.2467 -104.3492 277° West 272 313 12,300 -878 Descending Denver Center
Thu 09:59:07 AM 40.2542 -104.4350 277° West 246 283 11,100 -1,268 Descending Denver Center
Thu 10:00:08 AM 40.2492 -104.5303 266° West 244 281 9,700 -1,024 Descending Denver Center
Thu 10:01:10 AM 40.2378 -104.6161 260° West 243 280 9,000 -634 Descending Denver Center
Thu 10:02:11 AM 40.1939 -104.6808 228° Southwest 244 281 8,400 -537 Descending Denver Center
Thu 10:03:13 AM 40.1242 -104.6842 182° South 249 287 7,900 -341 Descending Denver Center
Thu 10:04:14 AM 40.0547 -104.6847 180° South 250 288 7,700 -488 Descending Denver Center
Thu 10:05:16 AM 39.9811 -104.6856 180° South 246 283 6,900 -774 Descending Denver Center
Thu 10:06:18 AM 39.9356 -104.6861 181° South 166 191 6,100 -780 Descending Denver Center
Thu 10:07:19 AM 39.8942 -104.6867 181° South 153 176 5,300 -787 Descending Denver Center

Login

Don't have an account? Register now (free) for customized features, flight alerts, and more!